Time;durP1;ratioP1;P1;durP2;ratioP2;P2;SDS_P1;SDS_P2;PMS_P1;PMS_P2;Temp;Humidity;BMP_temperature;BMP_pressure;BME280_temperature;BME280_humidity;BME280_pressure;Samples;Min_cycle;Max_cycle;Signal;HPM_P1;HPM_P2
2024/02/05 00:01:24;;;;;;;4.03;2.70;;;8.70;99.90;;;;;;5013911;28;20788;-69
2024/02/05 00:03:50;;;;;;;3.70;3.00;;;8.60;99.90;;;;;;5009763;28;20212;-69
2024/02/05 00:06:16;;;;;;;3.93;3.10;;;8.60;99.90;;;;;;5011287;28;20975;-69
2024/02/05 00:08:41;;;;;;;3.63;2.77;;;8.60;99.90;;;;;;5014494;28;20196;-69
2024/02/05 00:11:07;;;;;;;4.10;2.93;;;8.60;99.90;;;;;;5013809;28;20661;-69
2024/02/05 00:13:33;;;;;;;4.00;2.83;;;8.60;99.90;;;;;;5011096;28;20244;-69
2024/02/05 00:15:59;;;;;;;3.60;2.77;;;8.60;99.90;;;;;;5013571;28;20706;-70
2024/02/05 00:18:24;;;;;;;5.00;3.17;;;8.60;99.90;;;;;;5014776;28;20431;-69
2024/02/05 00:20:50;;;;;;;3.90;3.00;;;8.60;99.90;;;;;;5017258;28;20180;-69
2024/02/05 00:23:17;;;;;;;3.60;3.17;;;8.60;99.90;;;;;;5012450;28;20262;-69
2024/02/05 00:25:42;;;;;;;3.80;2.90;;;8.60;99.90;;;;;;5017098;28;20459;-69
2024/02/05 00:28:11;;;;;;;4.17;2.87;;;8.70;99.90;;;;;;5008363;28;20431;-69
2024/02/05 00:30:37;;;;;;;4.03;2.80;;;8.60;99.90;;;;;;5018291;28;20181;-69
2024/02/05 00:33:06;;;;;;;3.57;2.90;;;8.60;99.90;;;;;;5013470;28;20439;-69
2024/02/05 00:35:31;;;;;;;3.80;3.17;;;8.70;99.90;;;;;;5014807;28;20666;-69
2024/02/05 00:37:58;;;;;;;4.90;2.90;;;8.60;99.90;;;;;;5012350;28;20562;-69
2024/02/05 00:40:24;;;;;;;3.30;2.90;;;8.70;99.90;;;;;;5013134;28;20203;-69
2024/02/05 00:42:49;;;;;;;3.50;2.90;;;8.70;99.90;;;;;;5012183;28;20473;-69
2024/02/05 00:45:16;;;;;;;4.30;2.90;;;8.70;99.90;;;;;;5016606;28;20926;-69
2024/02/05 00:47:41;;;;;;;3.20;2.90;;;8.60;99.90;;;;;;5016200;28;20181;-69
2024/02/05 00:50:07;;;;;;;2.87;2.57;;;8.60;99.90;;;;;;5010606;28;20933;-69
2024/02/05 00:52:33;;;;;;;3.80;3.10;;;8.70;99.90;;;;;;5023512;28;20223;-68
2024/02/05 00:54:58;;;;;;;4.17;3.00;;;8.60;99.90;;;;;;5017636;28;20200;-68
2024/02/05 00:57:27;;;;;;;4.47;3.10;;;8.60;99.90;;;;;;5015840;28;20181;-68
2024/02/05 00:59:56;;;;;;;3.20;2.50;;;8.60;99.90;;;;;;5015233;28;20539;-68
2024/02/05 01:02:23;;;;;;;3.70;2.97;;;8.60;99.90;;;;;;5021383;28;20540;-68
2024/02/05 01:04:49;;;;;;;5.33;2.90;;;8.70;99.90;;;;;;5014025;28;20431;-69
2024/02/05 01:07:14;;;;;;;4.20;3.13;;;8.70;99.90;;;;;;5017541;28;20472;-69
2024/02/05 01:09:41;;;;;;;3.53;3.00;;;8.60;99.90;;;;;;5025922;28;20177;-69
2024/02/05 01:12:07;;;;;;;4.53;3.37;;;8.70;99.90;;;;;;5017267;28;20177;-69
2024/02/05 01:14:32;;;;;;;4.63;3.60;;;8.70;99.90;;;;;;5021247;28;20443;-69
2024/02/05 01:16:58;;;;;;;5.73;3.00;;;8.70;99.90;;;;;;5018115;28;21054;-69
2024/02/05 01:19:24;;;;;;;4.07;3.00;;;8.70;99.90;;;;;;5019252;28;20630;-69
2024/02/05 01:21:49;;;;;;;3.30;2.83;;;8.70;99.90;;;;;;5015578;28;20434;-69
2024/02/05 01:24:15;;;;;;;3.97;3.57;;;8.70;99.90;;;;;;5014601;28;20549;-69
2024/02/05 01:26:41;;;;;;;4.23;3.13;;;8.80;99.90;;;;;;5022353;28;20215;-69
2024/02/05 01:29:09;;;;;;;4.93;3.10;;;8.70;99.90;;;;;;5021822;28;20172;-69
2024/02/05 01:31:36;;;;;;;5.40;2.90;;;8.60;99.90;;;;;;5014578;28;20181;-69
2024/02/05 01:34:02;;;;;;;4.20;3.00;;;8.60;99.90;;;;;;5013729;28;20482;-69
2024/02/05 01:36:28;;;;;;;3.97;3.03;;;8.60;99.90;;;;;;5017882;28;20902;-70
2024/02/05 01:38:53;;;;;;;4.10;2.80;;;8.50;99.90;;;;;;5016586;28;20435;-69
2024/02/05 01:41:19;;;;;;;3.80;3.37;;;8.60;99.90;;;;;;5013171;28;20932;-69
2024/02/05 01:43:45;;;;;;;5.20;3.23;;;8.60;99.90;;;;;;5021455;28;20205;-69
2024/02/05 01:46:21;;;;;;;5.73;3.70;;;8.40;99.90;;;;;;5015203;28;20205;-69
2024/02/05 01:48:54;;;;;;;4.17;3.33;;;8.40;99.90;;;;;;5014297;28;20280;-69
2024/02/05 01:51:22;;;;;;;3.13;2.63;;;8.50;99.90;;;;;;5017108;28;20478;-69
2024/02/05 01:53:54;;;;;;;4.77;2.93;;;8.50;99.90;;;;;;5017789;28;20443;-69
2024/02/05 01:56:27;;;;;;;4.80;3.00;;;8.40;99.90;;;;;;5011926;28;20419;-69
2024/02/05 01:59:03;;;;;;;6.63;3.20;;;8.50;99.90;;;;;;5012204;28;20418;-69
2024/02/05 02:01:31;;;;;;;5.10;3.63;;;8.40;99.90;;;;;;5010938;28;20469;-69
2024/02/05 02:03:57;;;;;;;4.30;3.43;;;8.50;99.90;;;;;;5009269;28;20463;-69
2024/02/05 02:06:24;;;;;;;4.30;3.07;;;8.50;99.90;;;;;;5014123;28;21116;-70
2024/02/05 02:08:50;;;;;;;5.10;3.13;;;8.50;99.90;;;;;;5013389;28;20423;-69
2024/02/05 02:11:16;;;;;;;3.83;2.93;;;8.60;99.90;;;;;;5017176;28;20441;-69
2024/02/05 02:13:43;;;;;;;4.50;3.10;;;8.60;99.90;;;;;;5010665;28;20981;-69
2024/02/05 02:16:16;;;;;;;5.53;3.20;;;8.60;99.90;;;;;;5010957;28;20204;-69
2024/02/05 02:18:41;;;;;;;3.30;2.60;;;8.70;99.90;;;;;;5012648;28;20436;-70
2024/02/05 02:21:13;;;;;;;5.07;3.20;;;8.70;99.90;;;;;;5019941;28;20909;-69
2024/02/05 02:23:40;;;;;;;3.67;2.73;;;8.70;99.90;;;;;;5011114;28;20466;-69
2024/02/05 02:26:05;;;;;;;3.20;2.67;;;8.80;99.90;;;;;;5013267;28;20438;-69
2024/02/05 02:28:31;;;;;;;3.67;2.60;;;8.80;99.90;;;;;;5011934;28;20419;-69
2024/02/05 02:30:57;;;;;;;5.00;2.60;;;8.80;99.90;;;;;;5015436;28;20177;-69
2024/02/05 02:33:23;;;;;;;4.77;2.60;;;8.80;99.90;;;;;;5014079;28;20188;-69
2024/02/05 02:36:03;;;;;;;3.47;2.57;;;8.80;99.90;;;;;;5017324;28;20181;-69
2024/02/05 02:38:37;;;;;;;3.50;2.80;;;8.70;99.90;;;;;;5018390;28;20635;-69
2024/02/05 02:41:17;;;;;;;3.23;2.40;;;8.70;99.90;;;;;;5019973;28;20434;-69
2024/02/05 02:43:58;;;;;;;4.63;2.67;;;8.80;99.90;;;;;;5019254;28;21001;-69
2024/02/05 02:46:25;;;;;;;2.77;2.27;;;8.80;99.90;;;;;;5013112;28;20784;-69
2024/02/05 02:48:50;;;;;;;3.20;2.40;;;8.70;99.90;;;;;;5012324;28;20421;-69
2024/02/05 02:51:16;;;;;;;6.53;2.50;;;8.80;99.90;;;;;;5012468;28;20427;-69
2024/02/05 02:53:42;;;;;;;2.87;2.40;;;8.90;99.90;;;;;;5015898;28;20216;-69
2024/02/05 02:56:08;;;;;;;5.67;2.40;;;8.90;99.90;;;;;;5010317;28;20184;-69
2024/02/05 02:58:34;;;;;;;3.20;2.20;;;8.90;99.90;;;;;;5013040;28;20284;-69
2024/02/05 03:01:00;;;;;;;3.23;2.13;;;9.00;99.90;;;;;;5015030;28;20865;-69
2024/02/05 03:03:25;;;;;;;7.00;3.43;;;9.00;99.90;;;;;;5021827;28;20220;-69
2024/02/05 03:05:51;;;;;;;2.93;2.43;;;9.00;99.90;;;;;;5019837;28;20180;-69
2024/02/05 03:08:17;;;;;;;3.40;2.60;;;9.10;99.90;;;;;;5016827;28;20322;-69
2024/02/05 03:10:42;;;;;;;3.93;2.70;;;9.10;99.90;;;;;;5015007;28;20244;-69
2024/02/05 03:13:08;;;;;;;2.93;2.10;;;9.00;99.90;;;;;;5013997;28;20657;-69
2024/02/05 03:15:34;;;;;;;3.73;2.37;;;9.10;99.90;;;;;;5023413;28;20513;-69
2024/02/05 03:18:00;;;;;;;4.60;2.50;;;9.10;99.90;;;;;;5011618;28;20455;-69
2024/02/05 03:20:37;;;;;;;5.07;2.63;;;9.00;99.90;;;;;;5016168;28;20691;-70
2024/02/05 03:23:08;;;;;;;3.93;2.20;;;9.10;99.90;;;;;;5006193;28;20205;-69
2024/02/05 03:25:34;;;;;;;4.20;2.30;;;9.10;99.90;;;;;;5018281;28;20529;-69
2024/02/05 03:28:00;;;;;;;4.60;2.30;;;9.00;99.90;;;;;;5013447;28;20423;-68
2024/02/05 03:30:33;;;;;;;4.20;2.27;;;9.00;99.90;;;;;;5018128;28;20547;-68
2024/02/05 03:33:00;;;;;;;6.53;2.30;;;9.10;99.90;;;;;;5019406;28;20443;-68
2024/02/05 03:35:27;;;;;;;4.57;2.40;;;9.10;99.90;;;;;;5016031;28;20434;-68
2024/02/05 03:37:53;;;;;;;3.80;2.43;;;9.00;99.90;;;;;;5011265;28;20451;-68
2024/02/05 03:40:21;;;;;;;4.63;2.57;;;9.00;99.90;;;;;;5015421;28;20775;-69
2024/02/05 03:42:47;;;;;;;4.77;2.17;;;8.90;99.90;;;;;;5014333;28;20476;-69
2024/02/05 03:45:13;;;;;;;2.50;1.80;;;8.90;99.90;;;;;;5014764;28;20809;-68
2024/02/05 03:47:39;;;;;;;5.30;2.10;;;9.00;99.90;;;;;;5013882;28;20423;-69
2024/02/05 03:50:05;;;;;;;4.60;2.30;;;9.00;99.90;;;;;;5011357;28;20474;-68
2024/02/05 03:52:30;;;;;;;3.60;3.20;;;8.90;99.90;;;;;;5015896;28;20181;-69
2024/02/05 03:54:56;;;;;;;3.97;2.03;;;8.90;99.90;;;;;;5016465;28;20539;-69
2024/02/05 03:57:21;;;;;;;5.43;2.63;;;8.90;99.90;;;;;;5007740;28;20615;-68
2024/02/05 03:59:47;;;;;;;5.63;2.77;;;9.00;99.90;;;;;;5013574;28;20189;-68
2024/02/05 04:02:12;;;;;;;5.27;2.60;;;9.00;99.90;;;;;;5011669;28;20255;-68
2024/02/05 04:04:39;;;;;;;3.47;2.30;;;9.00;99.90;;;;;;5017101;28;20208;-68
2024/02/05 04:07:05;;;;;;;4.20;1.93;;;9.00;99.90;;;;;;5020057;28;20184;-68
2024/02/05 04:09:36;;;;;;;2.93;2.20;;;8.90;99.90;;;;;;5024784;28;20424;-68
2024/02/05 04:12:02;;;;;;;2.67;1.90;;;8.90;99.90;;;;;;5020661;28;20208;-68
2024/02/05 04:14:27;;;;;;;3.37;2.43;;;8.70;99.90;;;;;;5016307;28;20962;-68
2024/02/05 04:16:53;;;;;;;5.70;2.37;;;8.80;99.90;;;;;;5009458;28;20453;-69
2024/02/05 04:19:18;;;;;;;3.57;2.53;;;8.80;99.90;;;;;;5014337;28;20619;-68
2024/02/05 04:21:44;;;;;;;3.37;2.27;;;8.90;99.90;;;;;;5013803;28;20225;-69
2024/02/05 04:24:09;;;;;;;5.33;2.83;;;8.80;99.90;;;;;;5012911;28;20196;-68
2024/02/05 04:26:35;;;;;;;2.93;2.13;;;8.80;99.90;;;;;;5009431;28;20663;-68
2024/02/05 04:29:01;;;;;;;3.73;2.47;;;8.80;99.90;;;;;;5010248;28;20207;-69
2024/02/05 04:31:26;;;;;;;3.63;2.50;;;8.80;99.90;;;;;;5013838;28;20183;-69
2024/02/05 04:33:52;;;;;;;3.13;2.10;;;8.80;99.90;;;;;;5010710;28;20212;-69
2024/02/05 04:36:17;;;;;;;4.23;2.60;;;8.80;99.90;;;;;;5014288;28;20283;-69
2024/02/05 04:38:43;;;;;;;3.33;2.30;;;8.70;99.90;;;;;;5016066;28;20193;-69
2024/02/05 04:41:11;;;;;;;4.93;2.27;;;8.70;99.90;;;;;;5012804;28;20181;-69
2024/02/05 04:43:40;;;;;;;2.70;2.30;;;8.80;99.90;;;;;;5014373;28;20470;-69
2024/02/05 04:46:10;;;;;;;3.33;2.33;;;8.80;99.90;;;;;;5008585;28;20415;-69
2024/02/05 04:48:36;;;;;;;6.17;2.23;;;8.80;99.90;;;;;;5015711;28;20529;-69
2024/02/05 04:51:02;;;;;;;2.83;1.90;;;8.90;99.90;;;;;;5012218;28;20503;-68
2024/02/05 04:53:28;;;;;;;3.90;3.47;;;8.90;99.90;;;;;;5015854;28;20451;-68
2024/02/05 04:55:53;;;;;;;7.43;2.23;;;8.90;99.90;;;;;;5015804;28;20195;-68
2024/02/05 04:58:19;;;;;;;3.13;2.10;;;8.90;99.90;;;;;;5006699;28;20267;-68
2024/02/05 05:00:48;;;;;;;3.23;1.90;;;8.90;99.90;;;;;;5006102;28;20195;-68
2024/02/05 05:03:13;;;;;;;5.57;2.00;;;8.90;99.90;;;;;;5003923;28;20433;-69
2024/02/05 05:05:39;;;;;;;3.50;1.90;;;8.90;99.90;;;;;;5011864;28;20440;-68
2024/02/05 05:08:05;;;;;;;2.60;1.70;;;8.90;99.90;;;;;;5015426;28;20250;-69
2024/02/05 05:10:30;;;;;;;3.03;2.10;;;8.90;99.90;;;;;;5014751;28;20188;-69
2024/02/05 05:12:56;;;;;;;2.73;2.10;;;8.90;99.90;;;;;;5012427;28;20630;-68
2024/02/05 05:15:21;;;;;;;3.30;1.80;;;8.90;99.90;;;;;;5012540;28;20219;-68
2024/02/05 05:17:47;;;;;;;4.97;2.27;;;8.90;99.90;;;;;;5016454;28;20196;-68
2024/02/05 05:20:13;;;;;;;2.80;2.00;;;8.90;99.90;;;;;;5015328;28;20226;-69
2024/02/05 05:22:39;;;;;;;2.70;1.60;;;8.90;99.90;;;;;;5007579;28;20288;-68
2024/02/05 05:25:07;;;;;;;2.63;1.90;;;9.00;99.90;;;;;;5010702;28;21188;-69
2024/02/05 05:27:33;;;;;;;2.87;1.43;;;9.00;99.90;;;;;;5015409;28;20181;-70
2024/02/05 05:29:58;;;;;;;3.40;1.80;;;9.00;99.90;;;;;;5012964;28;20818;-68
2024/02/05 05:32:24;;;;;;;3.00;1.73;;;9.00;99.90;;;;;;5014822;28;20431;-69
2024/02/05 05:34:49;;;;;;;3.73;1.90;;;9.10;99.90;;;;;;5021163;28;20216;-69
2024/02/05 05:37:15;;;;;;;4.33;2.37;;;9.10;99.90;;;;;;5017767;28;20271;-68
2024/02/05 05:39:40;;;;;;;2.87;2.03;;;9.10;99.90;;;;;;5013206;28;20185;-68
2024/02/05 05:42:08;;;;;;;3.37;1.80;;;9.10;99.90;;;;;;5011801;28;20200;-69
2024/02/05 05:44:33;;;;;;;5.57;2.40;;;9.10;99.90;;;;;;5015959;28;20197;-68
2024/02/05 05:46:59;;;;;;;3.83;2.77;;;9.10;99.90;;;;;;5018913;28;20414;-68
2024/02/05 05:49:24;;;;;;;3.40;2.00;;;9.10;99.90;;;;;;5021757;28;20242;-68
2024/02/05 05:51:50;;;;;;;2.40;1.60;;;9.10;99.90;;;;;;5020534;28;20181;-68
2024/02/05 05:54:16;;;;;;;2.80;1.83;;;9.10;99.90;;;;;;5020689;28;20196;-68
2024/02/05 05:56:41;;;;;;;2.60;1.50;;;9.10;99.90;;;;;;5015469;28;20181;-69
2024/02/05 05:59:07;;;;;;;2.27;1.50;;;9.10;99.90;;;;;;5014763;28;20231;-72
2024/02/05 06:01:35;;;;;;;2.20;1.60;;;9.10;99.90;;;;;;5013076;28;20244;-69
2024/02/05 06:04:02;;;;;;;3.37;1.77;;;9.10;99.90;;;;;;5018468;28;20258;-69
2024/02/05 06:06:28;;;;;;;2.70;2.00;;;9.10;99.90;;;;;;5007791;28;20424;-69
2024/02/05 06:08:53;;;;;;;2.77;1.43;;;9.20;99.90;;;;;;5015465;28;20415;-68
2024/02/05 06:11:22;;;;;;;3.03;1.70;;;9.20;99.90;;;;;;5015021;28;20652;-68
2024/02/05 06:13:49;;;;;;;2.33;1.53;;;9.30;99.90;;;;;;5014596;28;20550;-68
2024/02/05 06:16:14;;;;;;;2.83;1.70;;;9.30;99.90;;;;;;5013417;28;20458;-68
2024/02/05 06:18:40;;;;;;;2.80;1.63;;;9.40;99.90;;;;;;5025766;28;20940;-68
2024/02/05 06:21:06;;;;;;;4.20;1.60;;;9.40;99.90;;;;;;5014601;28;20196;-68
2024/02/05 06:23:32;;;;;;;2.20;1.30;;;9.40;99.90;;;;;;5016658;28;20647;-68
2024/02/05 06:25:59;;;;;;;4.17;1.80;;;9.50;99.90;;;;;;5017775;28;20412;-68
2024/02/05 06:28:25;;;;;;;2.17;1.43;;;9.50;99.90;;;;;;5014913;28;20447;-69
2024/02/05 06:30:51;;;;;;;5.03;2.03;;;9.50;99.90;;;;;;5015058;28;20486;-68
2024/02/05 06:33:17;;;;;;;2.50;1.50;;;9.50;99.90;;;;;;5011447;28;20662;-69
2024/02/05 06:35:43;;;;;;;2.90;1.50;;;9.40;99.90;;;;;;5015829;28;20419;-69
2024/02/05 06:38:09;;;;;;;2.73;1.60;;;9.40;99.90;;;;;;5018165;28;20208;-69
2024/02/05 06:40:35;;;;;;;2.33;1.60;;;9.40;99.90;;;;;;5016596;28;20426;-68
2024/02/05 06:43:00;;;;;;;2.63;1.83;;;9.40;99.90;;;;;;5016880;28;20591;-68
2024/02/05 06:45:26;;;;;;;4.73;1.63;;;9.40;99.90;;;;;;5014575;28;20215;-68
2024/02/05 06:47:52;;;;;;;9.03;1.77;;;9.50;99.90;;;;;;5015690;28;20177;-69
2024/02/05 06:50:17;;;;;;;4.00;1.47;;;9.40;99.90;;;;;;5019582;28;20185;-68
2024/02/05 06:52:43;;;;;;;2.33;1.50;;;9.40;99.90;;;;;;5013385;28;20697;-69
2024/02/05 06:55:09;;;;;;;3.67;2.20;;;9.40;99.90;;;;;;5016051;28;20211;-68
2024/02/05 06:57:35;;;;;;;2.57;1.60;;;9.40;99.90;;;;;;5013348;28;20250;-68
2024/02/05 07:00:03;;;;;;;2.40;1.70;;;9.40;99.90;;;;;;5017887;28;20184;-68
2024/02/05 07:02:29;;;;;;;3.10;1.70;;;9.40;99.90;;;;;;5013082;28;20467;-69
2024/02/05 07:04:56;;;;;;;6.17;2.63;;;9.40;99.90;;;;;;5014752;28;20586;-69
2024/02/05 07:07:22;;;;;;;1.87;1.30;;;9.40;99.90;;;;;;5010556;28;20185;-68
2024/02/05 07:09:48;;;;;;;1.90;1.30;;;9.40;99.90;;;;;;5017430;28;20931;-68
2024/02/05 07:12:14;;;;;;;2.30;1.70;;;9.40;99.90;;;;;;5011764;28;20794;-68
2024/02/05 07:14:40;;;;;;;3.30;1.53;;;9.50;99.90;;;;;;5017814;28;20212;-69
2024/02/05 07:17:05;;;;;;;3.20;1.80;;;9.40;99.90;;;;;;5016767;28;20768;-69
2024/02/05 07:19:31;;;;;;;3.07;1.70;;;9.50;99.90;;;;;;5008498;28;20416;-69
2024/02/05 07:21:57;;;;;;;2.70;1.50;;;9.50;99.90;;;;;;5016286;28;20188;-68
2024/02/05 07:24:22;;;;;;;2.70;1.50;;;9.50;99.90;;;;;;5015116;28;20212;-68
2024/02/05 07:26:48;;;;;;;2.10;1.40;;;9.50;99.90;;;;;;5009419;28;20189;-68
2024/02/05 07:29:14;;;;;;;2.47;1.33;;;9.50;99.90;;;;;;5015950;28;20256;-69
2024/02/05 07:31:39;;;;;;;2.40;1.30;;;9.50;99.90;;;;;;5012479;28;20564;-68
2024/02/05 07:34:05;;;;;;;2.10;1.27;;;9.50;99.90;;;;;;5013843;28;20611;-68
2024/02/05 07:36:30;;;;;;;4.50;1.50;;;9.50;99.90;;;;;;5014155;28;20641;-68
2024/02/05 07:38:56;;;;;;;4.90;1.50;;;9.50;99.90;;;;;;5018448;28;20215;-69
2024/02/05 07:41:21;;;;;;;2.30;1.57;;;9.60;99.90;;;;;;5013691;28;20643;-69
2024/02/05 07:43:47;;;;;;;4.03;1.67;;;9.70;99.90;;;;;;5019320;28;20246;-69
2024/02/05 07:46:13;;;;;;;3.20;1.50;;;9.60;99.90;;;;;;5017668;28;20184;-68
2024/02/05 07:48:38;;;;;;;2.30;1.30;;;9.60;99.90;;;;;;5014796;28;20199;-68
2024/02/05 07:51:04;;;;;;;6.83;1.73;;;9.60;99.90;;;;;;5011529;28;20181;-68
2024/02/05 07:53:30;;;;;;;3.40;1.33;;;9.60;99.90;;;;;;5015512;28;20213;-68
2024/02/05 07:55:56;;;;;;;2.13;1.30;;;9.60;99.90;;;;;;5010380;28;20423;-68
2024/02/05 07:58:22;;;;;;;1.70;1.13;;;9.60;99.90;;;;;;5007217;28;20431;-68
2024/02/05 08:00:48;;;;;;;6.13;1.40;;;9.70;99.90;;;;;;5011814;28;20189;-68
2024/02/05 08:03:14;;;;;;;3.47;1.70;;;9.70;99.90;;;;;;5014019;28;20852;-68
2024/02/05 08:05:39;;;;;;;2.00;1.20;;;9.70;99.90;;;;;;5006520;28;20180;-68
2024/02/05 08:08:05;;;;;;;3.00;1.30;;;9.70;99.90;;;;;;5012648;28;20778;-68
2024/02/05 08:10:31;;;;;;;4.20;2.10;;;9.80;99.90;;;;;;5013682;28;20714;-69
2024/02/05 08:12:56;;;;;;;4.20;2.00;;;9.80;99.90;;;;;;5010441;28;20978;-68
2024/02/05 08:15:22;;;;;;;5.97;1.40;;;9.90;99.90;;;;;;5016055;28;20215;-69
2024/02/05 08:17:48;;;;;;;1.90;1.33;;;9.90;99.90;;;;;;5017520;28;20220;-68
2024/02/05 08:20:13;;;;;;;2.43;1.53;;;10.00;99.90;;;;;;5013159;28;20192;-68
2024/02/05 08:22:40;;;;;;;2.53;1.33;;;10.00;99.90;;;;;;5014526;28;20275;-68
2024/02/05 08:25:06;;;;;;;3.30;1.60;;;10.00;99.90;;;;;;5013706;28;20282;-68
2024/02/05 08:27:32;;;;;;;5.40;1.70;;;9.90;99.90;;;;;;5020744;28;20423;-68
2024/02/05 08:29:58;;;;;;;6.57;1.47;;;10.00;99.90;;;;;;5012033;28;20441;-68
2024/02/05 08:32:24;;;;;;;3.40;1.83;;;10.20;99.90;;;;;;5017397;28;20442;-68
2024/02/05 08:34:49;;;;;;;2.33;1.50;;;10.10;99.90;;;;;;5016266;28;20200;-68
2024/02/05 08:37:15;;;;;;;4.23;1.87;;;10.10;99.90;;;;;;5015902;28;20190;-68
2024/02/05 08:39:41;;;;;;;3.23;1.70;;;10.00;99.90;;;;;;5009579;28;20189;-68
2024/02/05 08:42:06;;;;;;;4.73;1.60;;;10.00;99.90;;;;;;5011876;28;20242;-69
2024/02/05 08:44:32;;;;;;;1.90;1.20;;;10.00;99.90;;;;;;5009826;28;20201;-68
2024/02/05 08:46:57;;;;;;;2.10;1.50;;;10.10;99.90;;;;;;5010647;28;20180;-68
2024/02/05 08:49:23;;;;;;;2.70;1.50;;;10.10;99.90;;;;;;5008801;28;20264;-68
2024/02/05 08:51:48;;;;;;;2.20;1.40;;;10.20;99.90;;;;;;5008805;28;20204;-69
2024/02/05 08:54:14;;;;;;;4.00;2.27;;;10.20;99.90;;;;;;5009264;28;20196;-68
2024/02/05 08:56:40;;;;;;;2.20;1.50;;;10.20;99.90;;;;;;5013415;28;20247;-68
2024/02/05 08:59:05;;;;;;;2.10;1.23;;;10.20;99.90;;;;;;5011058;28;20192;-68
2024/02/05 09:01:31;;;;;;;7.40;2.13;;;10.20;99.90;;;;;;5015363;28;20284;-69
2024/02/05 09:03:57;;;;;;;3.83;1.60;;;10.10;99.90;;;;;;5013220;28;21019;-68
2024/02/05 09:06:22;;;;;;;8.63;1.57;;;10.10;99.90;;;;;;5014336;28;20720;-68
2024/02/05 09:08:49;;;;;;;3.13;1.80;;;10.10;99.90;;;;;;5015148;28;20184;-68
2024/02/05 09:11:14;;;;;;;2.30;1.40;;;10.10;99.90;;;;;;5022774;28;20176;-69
2024/02/05 09:13:40;;;;;;;2.30;1.43;;;10.20;99.90;;;;;;5020265;28;20435;-68
2024/02/05 09:16:06;;;;;;;7.60;1.70;;;10.20;99.90;;;;;;5019310;28;20561;-69
2024/02/05 09:18:31;;;;;;;4.10;2.07;;;10.20;99.90;;;;;;5016621;28;20238;-69
2024/02/05 09:20:57;;;;;;;3.53;1.83;;;10.20;99.90;;;;;;5019995;28;20180;-69
2024/02/05 09:23:23;;;;;;;4.43;1.90;;;10.20;99.90;;;;;;5015864;28;22674;-69
2024/02/05 09:25:48;;;;;;;2.93;1.47;;;10.20;99.90;;;;;;5013740;28;20200;-69
2024/02/05 09:28:14;;;;;;;5.50;2.07;;;10.20;99.90;;;;;;5020316;28;20169;-69
2024/02/05 09:30:40;;;;;;;5.83;1.80;;;10.30;99.90;;;;;;5012826;28;20192;-68
2024/02/05 09:33:06;;;;;;;2.37;1.53;;;10.30;99.90;;;;;;5017585;28;20648;-68
2024/02/05 09:35:32;;;;;;;3.40;2.23;;;10.40;99.90;;;;;;5013008;28;20193;-68
2024/02/05 09:37:57;;;;;;;4.43;2.00;;;10.40;99.90;;;;;;5016440;28;20415;-69
2024/02/05 09:40:25;;;;;;;2.60;1.70;;;10.50;99.90;;;;;;5020511;28;20801;-69
2024/02/05 09:42:51;;;;;;;4.63;2.90;;;10.50;99.90;;;;;;5017412;28;20205;-69
2024/02/05 09:45:18;;;;;;;5.07;1.90;;;10.60;99.90;;;;;;5011588;28;20527;-69
2024/02/05 09:47:44;;;;;;;4.60;1.77;;;10.60;99.90;;;;;;5016646;28;20460;-68
2024/02/05 09:50:12;;;;;;;3.23;1.80;;;10.60;99.90;;;;;;5014932;28;20420;-69
2024/02/05 09:52:40;;;;;;;7.03;1.83;;;10.60;99.90;;;;;;5016093;28;20518;-69
2024/02/05 09:55:09;;;;;;;2.80;2.20;;;10.60;99.90;;;;;;5015749;28;21040;-68
2024/02/05 09:57:36;;;;;;;4.07;1.90;;;10.60;99.90;;;;;;5013749;28;20423;-69
2024/02/05 10:00:02;;;;;;;3.43;1.97;;;10.60;99.90;;;;;;5016643;28;20452;-69
2024/02/05 10:02:29;;;;;;;4.40;1.90;;;10.60;99.90;;;;;;5011840;28;20447;-69
2024/02/05 10:04:57;;;;;;;3.30;2.00;;;10.70;99.90;;;;;;5015877;28;20819;-69
2024/02/05 10:07:26;;;;;;;6.07;1.70;;;10.70;99.90;;;;;;5013111;28;20419;-69
2024/02/05 10:09:53;;;;;;;4.60;1.60;;;10.80;99.90;;;;;;5016003;28;20447;-69
2024/02/05 10:12:20;;;;;;;6.50;2.00;;;10.70;99.90;;;;;;5013752;28;20928;-69
2024/02/05 10:14:46;;;;;;;4.87;2.10;;;10.80;99.90;;;;;;5016099;28;20436;-69
2024/02/05 10:17:12;;;;;;;3.20;1.53;;;10.80;99.90;;;;;;5017610;28;20972;-69
2024/02/05 10:19:37;;;;;;;8.10;1.90;;;10.80;99.90;;;;;;5010906;28;20468;-69
2024/02/05 10:22:05;;;;;;;3.43;1.80;;;10.80;99.90;;;;;;5014154;28;20177;-69
2024/02/05 10:24:34;;;;;;;5.73;1.90;;;10.80;99.90;;;;;;5012414;28;20201;-69
2024/02/05 10:26:59;;;;;;;5.10;2.60;;;10.80;99.90;;;;;;5014641;28;20419;-69
2024/02/05 10:29:25;;;;;;;4.73;1.93;;;10.80;99.90;;;;;;5018156;28;20471;-69
2024/02/05 10:31:53;;;;;;;5.43;1.90;;;10.90;99.90;;;;;;5016755;28;20261;-69
2024/02/05 10:34:23;;;;;;;4.07;2.00;;;10.90;99.90;;;;;;5014645;28;20208;-69
2024/02/05 10:36:49;;;;;;;3.33;2.00;;;10.90;99.90;;;;;;5015941;28;20489;-69
2024/02/05 10:39:23;;;;;;;4.90;2.27;;;11.00;99.90;;;;;;5009010;28;20416;-69
2024/02/05 10:41:53;;;;;;;9.60;2.40;;;11.00;99.90;;;;;;5011724;28;20514;-69
2024/02/05 10:44:19;;;;;;;2.70;1.87;;;10.90;99.90;;;;;;5010180;28;20451;-69
2024/02/05 10:46:45;;;;;;;5.50;1.90;;;10.90;99.90;;;;;;5013408;28;20969;-70
2024/02/05 10:49:11;;;;;;;5.63;2.10;;;10.90;99.90;;;;;;5017366;28;20178;-69
2024/02/05 10:51:39;;;;;;;5.53;2.23;;;11.00;99.90;;;;;;5018574;28;20408;-69
2024/02/05 10:54:05;;;;;;;4.20;2.10;;;11.10;99.90;;;;;;5017150;28;20816;-70
2024/02/05 10:56:31;;;;;;;4.27;2.30;;;11.10;99.90;;;;;;5014670;28;20409;-70
2024/02/05 10:58:59;;;;;;;4.67;2.17;;;11.00;99.90;;;;;;5011544;28;20604;-74
2024/02/05 11:01:29;;;;;;;5.03;2.37;;;11.00;99.90;;;;;;5017702;28;20438;-70
2024/02/05 11:04:01;;;;;;;3.83;1.90;;;10.90;99.90;;;;;;5010060;28;21684;-69
2024/02/05 11:06:34;;;;;;;5.10;2.30;;;10.90;99.90;;;;;;5011684;28;20450;-69
2024/02/05 11:09:01;;;;;;;8.67;2.57;;;10.80;99.90;;;;;;5018414;28;20489;-69
2024/02/05 11:11:28;;;;;;;5.47;2.80;;;10.80;99.90;;;;;;5018490;28;20428;-69
2024/02/05 11:13:56;;;;;;;3.60;2.10;;;10.80;99.90;;;;;;5013140;28;20539;-69
2024/02/05 11:16:23;;;;;;;8.27;2.83;;;10.70;99.90;;;;;;5019835;28;20439;-69
2024/02/05 11:18:52;;;;;;;4.90;2.80;;;10.70;99.90;;;;;;5013146;28;20510;-69
2024/02/05 11:21:27;;;;;;;5.67;3.10;;;10.80;99.90;;;;;;5010042;28;20523;-69
2024/02/05 11:23:55;;;;;;;5.30;2.53;;;10.90;99.90;;;;;;5010519;28;20471;-69
2024/02/05 11:26:24;;;;;;;6.70;2.80;;;10.90;99.90;;;;;;5018849;28;20530;-70
2024/02/05 11:28:51;;;;;;;5.97;2.07;;;11.00;99.90;;;;;;5017505;28;20446;-69
2024/02/05 11:31:20;;;;;;;7.97;2.77;;;11.00;99.90;;;;;;5016875;28;20450;-69
2024/02/05 11:33:46;;;;;;;6.33;2.47;;;11.00;99.90;;;;;;5013443;28;20438;-69
2024/02/05 11:36:13;;;;;;;6.20;3.13;;;11.00;99.90;;;;;;5011891;28;21077;-69
2024/02/05 11:38:42;;;;;;;5.73;2.40;;;11.00;99.90;;;;;;5016739;28;20185;-69
2024/02/05 11:41:08;;;;;;;12.13;3.03;;;11.00;99.90;;;;;;5010282;28;20447;-70
2024/02/05 11:43:33;;;;;;;10.93;2.70;;;11.10;99.90;;;;;;5016225;28;20464;-70
2024/02/05 11:46:02;;;;;;;4.20;2.50;;;11.30;99.90;;;;;;5017850;28;20422;-70
2024/02/05 11:48:29;;;;;;;4.97;2.50;;;11.40;99.90;;;;;;5014516;28;20295;-69
2024/02/05 11:50:58;;;;;;;2.60;2.17;;;11.50;99.90;;;;;;5013671;28;20835;-69
2024/02/05 11:53:24;;;;;;;6.73;2.50;;;11.60;99.90;;;;;;5018630;28;20497;-69
2024/02/05 11:55:50;;;;;;;7.23;3.53;;;11.60;99.90;;;;;;5009684;28;20440;-69
2024/02/05 11:58:15;;;;;;;6.27;2.63;;;11.60;99.90;;;;;;5008469;28;20277;-69
2024/02/05 12:00:41;;;;;;;6.97;3.00;;;11.50;99.90;;;;;;5015081;28;20566;-69
2024/02/05 12:03:07;;;;;;;4.73;2.97;;;11.50;99.90;;;;;;5019847;28;20306;-69
2024/02/05 12:05:33;;;;;;;4.00;2.37;;;11.70;99.90;;;;;;5016164;28;20779;-70
2024/02/05 12:08:01;;;;;;;6.23;2.73;;;11.60;99.90;;;;;;5015951;28;20407;-69
2024/02/05 12:10:26;;;;;;;3.17;2.40;;;11.60;99.90;;;;;;5016073;28;20295;-67
2024/02/05 12:12:52;;;;;;;6.80;3.43;;;11.60;99.90;;;;;;5012024;28;20972;-67
2024/02/05 12:15:18;;;;;;;4.97;2.70;;;11.60;99.90;;;;;;5010737;28;20678;-68
2024/02/05 12:17:48;;;;;;;4.80;3.20;;;11.60;99.90;;;;;;5017897;28;20270;-69
2024/02/05 12:20:19;;;;;;;6.87;3.40;;;11.90;99.90;;;;;;5008172;28;20427;-69
2024/02/05 12:22:47;;;;;;;6.27;3.03;;;12.00;99.90;;;;;;5008268;28;21003;-69
2024/02/05 12:25:14;;;;;;;5.00;2.20;;;12.10;99.90;;;;;;5007907;28;20606;-69
2024/02/05 12:27:39;;;;;;;9.20;2.63;;;12.10;99.90;;;;;;5017184;28;20561;-69
2024/02/05 12:30:09;;;;;;;7.07;2.70;;;12.30;99.90;;;;;;5014291;28;20507;-69
2024/02/05 12:32:34;;;;;;;5.67;2.50;;;12.30;99.90;;;;;;5012384;28;20216;-69
2024/02/05 12:35:01;;;;;;;8.77;2.80;;;12.60;99.90;;;;;;5011326;28;20514;-68
2024/02/05 12:37:27;;;;;;;6.77;2.97;;;12.50;99.90;;;;;;5012561;28;20428;-69
2024/02/05 12:39:55;;;;;;;8.63;2.83;;;12.60;99.90;;;;;;5014537;28;20832;-69
2024/02/05 12:42:25;;;;;;;5.30;3.20;;;12.80;99.90;;;;;;5017062;28;20810;-69
2024/02/05 12:44:51;;;;;;;6.07;2.90;;;12.90;99.90;;;;;;5018385;28;20501;-69
2024/02/05 12:47:18;;;;;;;4.27;3.00;;;13.00;99.90;;;;;;5017592;28;20447;-69
2024/02/05 12:49:44;;;;;;;5.20;3.27;;;12.70;99.90;;;;;;5021941;28;20921;-69